createdAt,value
2022-09-29T00:00:50.836Z,16.70
2022-09-29T00:03:18.399Z,16.67
2022-09-29T00:05:53.693Z,16.65
2022-09-29T00:08:22.958Z,16.70
2022-09-29T00:10:50.195Z,16.61
2022-09-29T00:13:18.257Z,16.59
2022-09-29T00:15:45.477Z,16.67
2022-09-29T00:18:14.642Z,16.56
2022-09-29T00:20:42.303Z,16.65
2022-09-29T00:23:09.272Z,16.56
2022-09-29T00:25:36.282Z,16.54
2022-09-29T00:28:03.285Z,16.53
2022-09-29T00:30:30.244Z,16.51
2022-09-29T00:32:57.453Z,16.61
2022-09-29T00:35:24.391Z,16.66
2022-09-29T00:37:51.345Z,16.60
2022-09-29T00:40:18.545Z,16.54
2022-09-29T00:42:45.785Z,16.51
2022-09-29T00:45:24.716Z,16.38
2022-09-29T00:48:14.674Z,16.47
2022-09-29T00:50:49.340Z,16.48
2022-09-29T00:53:21.750Z,16.50
2022-09-29T00:55:54.256Z,16.55
2022-09-29T00:58:54.924Z,16.58
2022-09-29T01:01:23.870Z,16.55
2022-09-29T01:03:56.024Z,16.47
2022-09-29T01:06:34.795Z,16.30
2022-09-29T01:09:08.552Z,16.26
2022-09-29T01:11:35.550Z,16.15
2022-09-29T01:14:06.725Z,15.98
2022-09-29T01:16:35.386Z,15.91
2022-09-29T01:19:08.234Z,15.89
2022-09-29T01:22:03.942Z,15.89
2022-09-29T01:25:26.369Z,15.93
2022-09-29T01:28:33.835Z,16.18
2022-09-29T01:31:23.377Z,16.22
2022-09-29T01:34:08.712Z,16.31
2022-09-29T01:37:25.184Z,16.39
2022-09-29T01:40:03.258Z,16.42
2022-09-29T01:42:36.361Z,16.56
2022-09-29T01:45:15.878Z,16.78
2022-09-29T01:47:49.357Z,16.72
2022-09-29T01:50:27.463Z,16.81
2022-09-29T01:53:03.007Z,16.71
2022-09-29T01:55:35.249Z,16.68
2022-09-29T01:58:13.793Z,16.61
2022-09-29T02:00:48.981Z,16.60
2022-09-29T02:03:40.374Z,16.61
2022-09-29T02:06:17.994Z,16.57
2022-09-29T02:08:56.297Z,16.57
2022-09-29T02:11:23.726Z,16.68
2022-09-29T02:14:31.206Z,16.78
2022-09-29T02:17:08.305Z,16.81
2022-09-29T02:19:38.994Z,16.94
2022-09-29T02:22:05.988Z,16.94
2022-09-29T02:24:32.920Z,16.99
2022-09-29T02:27:00.405Z,16.93
2022-09-29T02:29:27.797Z,16.75
2022-09-29T02:31:55.768Z,16.66
2022-09-29T02:34:23.541Z,16.64
2022-09-29T02:37:33.755Z,16.69
2022-09-29T02:40:39.026Z,16.57
2022-09-29T02:43:42.760Z,16.53
2022-09-29T02:46:44.419Z,16.51
2022-09-29T02:49:38.734Z,16.51
2022-09-29T02:52:47.188Z,16.50
2022-09-29T02:55:34.176Z,16.49
2022-09-29T02:58:13.479Z,16.53
2022-09-29T03:00:40.922Z,16.51
2022-09-29T03:03:07.944Z,16.46
2022-09-29T03:05:34.934Z,16.43
2022-09-29T03:08:02.398Z,16.46
2022-09-29T03:10:30.405Z,16.53
2022-09-29T03:12:57.566Z,16.55
2022-09-29T03:15:24.703Z,16.48
2022-09-29T03:17:56.796Z,16.33
2022-09-29T03:20:24.046Z,16.06
2022-09-29T03:22:51.278Z,15.99
2022-09-29T03:25:18.320Z,15.81
2022-09-29T03:27:45.341Z,15.90
2022-09-29T03:30:13.321Z,16.14
2022-09-29T03:32:40.229Z,15.65
2022-09-29T03:35:08.232Z,15.51
2022-09-29T03:37:35.424Z,15.32
2022-09-29T03:40:04.137Z,15.01
2022-09-29T03:42:31.219Z,15.30
2022-09-29T03:44:58.294Z,15.07
2022-09-29T03:47:25.439Z,15.09
2022-09-29T03:49:52.527Z,15.26
2022-09-29T03:52:19.502Z,15.26
2022-09-29T03:54:46.425Z,15.05
2022-09-29T03:57:13.414Z,15.00
2022-09-29T03:59:45.296Z,15.10
2022-09-29T04:02:12.644Z,15.25
2022-09-29T04:04:39.582Z,15.42
2022-09-29T04:07:06.531Z,15.26
2022-09-29T04:09:33.543Z,15.15
2022-09-29T04:12:00.656Z,15.12
2022-09-29T04:14:27.648Z,15.00
2022-09-29T04:16:54.563Z,14.81
2022-09-29T04:19:21.474Z,14.78
2022-09-29T04:21:48.514Z,14.77
2022-09-29T04:24:15.568Z,14.82
2022-09-29T04:26:42.500Z,14.78
2022-09-29T04:29:09.728Z,14.76
2022-09-29T04:31:36.820Z,14.81
2022-09-29T04:34:03.840Z,14.78
2022-09-29T04:36:30.862Z,14.75
2022-09-29T04:38:57.792Z,14.72
2022-09-29T04:41:24.773Z,14.66
2022-09-29T04:43:51.660Z,14.65
2022-09-29T04:46:18.611Z,14.70
2022-09-29T04:48:45.772Z,14.69
2022-09-29T04:51:12.760Z,14.66
2022-09-29T04:53:39.668Z,14.69
2022-09-29T04:56:08.820Z,14.68
2022-09-29T04:58:36.791Z,14.69
2022-09-29T05:01:14.046Z,14.74
2022-09-29T05:03:41.526Z,14.86
2022-09-29T05:06:10.149Z,15.02
2022-09-29T05:08:37.602Z,15.18
2022-09-29T05:11:09.885Z,15.19
2022-09-29T05:13:38.233Z,15.17
2022-09-29T05:16:05.857Z,15.18
2022-09-29T05:18:33.546Z,15.27
2022-09-29T05:21:27.168Z,15.44
2022-09-29T05:23:55.116Z,15.51
2022-09-29T05:26:22.127Z,15.63
2022-09-29T05:28:49.222Z,15.75
2022-09-29T05:31:16.421Z,15.97
2022-09-29T05:33:43.847Z,16.35
2022-09-29T05:36:12.678Z,16.10
2022-09-29T05:38:40.122Z,15.85
2022-09-29T05:41:10.151Z,15.83
2022-09-29T05:43:37.356Z,15.87
2022-09-29T05:46:06.408Z,16.05
2022-09-29T05:48:34.033Z,16.20
2022-09-29T05:51:08.829Z,16.22
2022-09-29T05:53:36.444Z,16.19
2022-09-29T05:56:12.206Z,16.29
2022-09-29T05:58:40.285Z,16.58
2022-09-29T06:01:09.264Z,16.69
2022-09-29T06:03:37.300Z,16.84
2022-09-29T06:06:13.305Z,16.63
2022-09-29T06:08:41.232Z,16.61
2022-09-29T06:11:11.178Z,16.68
2022-09-29T06:13:39.904Z,16.78
2022-09-29T06:16:07.973Z,16.93
2022-09-29T06:18:37.141Z,17.07
2022-09-29T06:21:07.051Z,17.13
2022-09-29T06:23:34.851Z,17.17
2022-09-29T06:26:05.067Z,17.30
2022-09-29T06:28:32.912Z,17.32
2022-09-29T06:31:02.054Z,17.45
2022-09-29T06:33:29.427Z,17.63
2022-09-29T06:36:16.022Z,17.86
2022-09-29T06:38:43.309Z,18.07
2022-09-29T06:41:10.228Z,18.10
2022-09-29T06:43:37.809Z,18.19
2022-09-29T06:46:05.203Z,18.20
2022-09-29T06:48:32.226Z,18.23
2022-09-29T06:51:09.550Z,18.22
2022-09-29T06:53:38.842Z,18.28
2022-09-29T06:56:06.819Z,18.46
2022-09-29T06:58:34.374Z,18.61
2022-09-29T07:01:02.824Z,18.76
2022-09-29T07:03:30.663Z,18.74
2022-09-29T07:08:48.125Z,18.72
2022-09-29T07:11:16.727Z,18.88
2022-09-29T07:13:43.757Z,18.97
2022-09-29T07:16:12.543Z,19.21
2022-09-29T07:18:42.178Z,19.20
2022-09-29T07:21:11.949Z,19.35
2022-09-29T07:23:39.450Z,19.43
2022-09-29T07:26:07.681Z,19.47
2022-09-29T07:28:35.105Z,19.60
2022-09-29T07:31:13.016Z,19.66
2022-09-29T07:33:42.218Z,19.76
2022-09-29T07:36:09.281Z,19.88
2022-09-29T07:38:36.350Z,20.00
2022-09-29T07:41:05.277Z,20.15
2022-09-29T07:43:32.594Z,20.27
2022-09-29T07:46:02.553Z,20.27
2022-09-29T07:48:32.206Z,20.33
2022-09-29T07:51:21.508Z,20.40
2022-09-29T07:53:48.471Z,20.47
2022-09-29T07:56:19.011Z,20.43
2022-09-29T07:58:47.554Z,20.48
2022-09-29T08:01:16.415Z,20.62
2022-09-29T08:03:49.179Z,20.82
2022-09-29T08:06:16.216Z,20.88
2022-09-29T08:08:56.748Z,20.88
2022-09-29T08:11:32.154Z,21.03
2022-09-29T08:14:00.487Z,21.30
2022-09-29T08:16:27.730Z,21.56
2022-09-29T08:18:55.147Z,21.81
2022-09-29T08:21:22.559Z,21.93
2022-09-29T08:23:49.567Z,22.14
2022-09-29T08:26:20.743Z,22.36
2022-09-29T08:29:03.275Z,22.45
2022-09-29T08:31:34.172Z,22.42
2022-09-29T08:34:01.194Z,22.48
2022-09-29T08:36:28.258Z,22.48
2022-09-29T08:38:57.220Z,22.53
2022-09-29T08:41:55.585Z,22.60
2022-09-29T08:45:10.783Z,22.64
2022-09-29T08:47:48.246Z,22.75
2022-09-29T08:50:43.721Z,22.77
2022-09-29T08:53:26.390Z,22.76
2022-09-29T08:56:06.163Z,22.68
2022-09-29T08:58:34.667Z,22.60
2022-09-29T09:01:24.689Z,22.45
2022-09-29T09:04:32.347Z,22.42
2022-09-29T09:07:44.117Z,22.46
2022-09-29T09:10:25.796Z,22.63
2022-09-29T09:13:27.475Z,22.66
2022-09-29T09:16:54.774Z,22.61
2022-09-29T09:19:47.309Z,22.78
2022-09-29T09:22:25.018Z,22.85
2022-09-29T09:25:07.510Z,22.90
2022-09-29T09:27:39.920Z,23.09
2022-09-29T09:30:13.672Z,23.08
2022-09-29T09:32:51.028Z,22.95
2022-09-29T09:35:53.944Z,23.11
2022-09-29T09:38:44.584Z,23.20
2022-09-29T09:41:16.214Z,23.33
2022-09-29T09:43:47.809Z,23.39
2022-09-29T09:46:50.163Z,23.60
2022-09-29T09:49:28.603Z,23.82
2022-09-29T09:52:15.830Z,24.15
2022-09-29T09:54:51.160Z,24.32
2022-09-29T09:57:55.017Z,24.20
2022-09-29T10:00:41.454Z,24.22
2022-09-29T10:03:10.103Z,24.41
2022-09-29T10:05:52.703Z,24.56
2022-09-29T10:08:28.183Z,24.79
2022-09-29T10:10:59.061Z,24.98
2022-09-29T10:13:31.592Z,25.05
2022-09-29T10:16:21.333Z,25.18
2022-09-29T10:18:52.879Z,25.40
2022-09-29T10:21:36.390Z,25.57
2022-09-29T10:24:07.585Z,25.48
2022-09-29T10:26:44.054Z,25.58
2022-09-29T10:29:41.422Z,25.57
2022-09-29T10:32:38.550Z,25.39
2022-09-29T10:35:18.219Z,25.30
2022-09-29T10:37:52.185Z,25.42
2022-09-29T10:40:21.643Z,25.69
2022-09-29T10:42:52.152Z,25.95
2022-09-29T10:45:20.397Z,25.99
2022-09-29T10:48:13.471Z,26.12
2022-09-29T10:50:53.948Z,26.31
2022-09-29T10:53:34.458Z,26.49
2022-09-29T10:56:25.211Z,26.72
2022-09-29T10:59:00.366Z,26.97
2022-09-29T11:01:42.172Z,27.24
2022-09-29T11:04:45.552Z,27.40
2022-09-29T11:07:13.306Z,27.41
2022-09-29T11:09:43.539Z,27.42
2022-09-29T11:12:29.788Z,27.69
2022-09-29T11:14:57.522Z,27.80
2022-09-29T11:17:31.661Z,28.07
2022-09-29T11:20:01.408Z,28.19
2022-09-29T11:23:08.806Z,28.35
2022-09-29T11:26:06.021Z,28.60
2022-09-29T11:29:12.241Z,28.78
2022-09-29T11:32:13.841Z,28.99
2022-09-29T11:35:15.134Z,29.16
2022-09-29T11:38:16.907Z,28.84
2022-09-29T11:41:25.518Z,28.66
2022-09-29T11:43:57.370Z,28.89
2022-09-29T11:46:49.664Z,28.76
2022-09-29T11:49:58.592Z,28.94
2022-09-29T11:53:18.992Z,29.11
2022-09-29T11:56:14.978Z,29.22
2022-09-29T11:59:11.019Z,29.00
2022-09-29T12:02:15.065Z,28.45
2022-09-29T12:04:57.317Z,28.30
2022-09-29T12:07:57.224Z,28.19
2022-09-29T12:10:53.625Z,28.08
2022-09-29T12:13:43.644Z,28.50
2022-09-29T12:16:20.530Z,28.62
2022-09-29T12:18:54.683Z,28.40
2022-09-29T12:21:34.789Z,28.21
2022-09-29T12:24:07.806Z,28.02
2022-09-29T12:26:35.336Z,27.93
2022-09-29T12:29:18.101Z,27.87
2022-09-29T12:31:50.450Z,27.72
2022-09-29T12:34:40.606Z,27.63
2022-09-29T12:37:18.130Z,27.65
2022-09-29T12:40:10.812Z,27.67
2022-09-29T12:43:04.531Z,27.69
2022-09-29T12:46:03.868Z,27.77
2022-09-29T12:48:51.607Z,27.91
2022-09-29T12:51:37.248Z,27.80
2022-09-29T12:54:21.439Z,27.91
2022-09-29T12:56:58.832Z,28.15
2022-09-29T12:59:41.692Z,27.97
2022-09-29T13:02:51.625Z,27.77
2022-09-29T13:06:09.414Z,27.57
2022-09-29T13:09:03.057Z,27.26
2022-09-29T13:12:03.597Z,27.11
2022-09-29T13:15:20.039Z,26.95
2022-09-29T13:27:42.923Z,26.11
2022-09-29T13:30:30.879Z,25.81
2022-09-29T13:35:47.431Z,25.55
2022-09-29T13:38:19.713Z,25.32
2022-09-29T13:41:10.083Z,25.31
2022-09-29T13:43:39.603Z,25.18
2022-09-29T13:46:53.053Z,25.29
2022-09-29T13:49:29.301Z,25.30
2022-09-29T13:52:20.031Z,25.06
2022-09-29T13:54:46.817Z,25.02
2022-09-29T13:57:27.735Z,24.72
2022-09-29T14:00:17.850Z,24.35
2022-09-29T14:03:01.303Z,23.90
2022-09-29T14:05:40.088Z,23.70
2022-09-29T14:08:31.602Z,23.51
2022-09-29T14:11:06.630Z,23.50
2022-09-29T14:14:15.933Z,23.58
2022-09-29T14:16:54.848Z,23.57
2022-09-29T14:19:54.890Z,23.44
2022-09-29T14:22:55.929Z,23.24
2022-09-29T14:25:53.686Z,23.17
2022-09-29T14:28:25.545Z,23.08
2022-09-29T14:30:55.248Z,23.13
2022-09-29T14:33:30.042Z,23.03
2022-09-29T14:36:10.529Z,22.98
2022-09-29T14:38:43.025Z,23.00
2022-09-29T14:41:24.328Z,23.04
2022-09-29T14:43:56.131Z,22.91
2022-09-29T14:47:19.536Z,22.84
2022-09-29T14:50:22.298Z,22.73
2022-09-29T14:53:17.817Z,22.52
2022-09-29T14:56:37.961Z,22.29
2022-09-29T14:59:33.998Z,21.90
2022-09-29T15:02:42.188Z,21.62
2022-09-29T15:05:31.110Z,21.62
2022-09-29T15:08:02.392Z,21.66
2022-09-29T15:10:42.959Z,21.67
2022-09-29T15:13:35.986Z,21.54
2022-09-29T15:16:30.088Z,21.51
2022-09-29T15:19:29.748Z,21.49
2022-09-29T15:22:28.023Z,21.49
2022-09-29T15:25:25.252Z,21.53
2022-09-29T15:27:55.022Z,21.52
2022-09-29T15:30:23.762Z,21.49
2022-09-29T15:32:52.387Z,21.44
2022-09-29T15:35:30.185Z,21.35
2022-09-29T15:38:29.051Z,21.22
2022-09-29T15:41:00.096Z,21.13
2022-09-29T15:43:41.634Z,21.01
2022-09-29T15:46:48.524Z,20.87
2022-09-29T15:49:18.430Z,20.70
2022-09-29T15:51:59.185Z,20.56
2022-09-29T15:57:51.427Z,20.47
2022-09-29T16:00:44.835Z,20.53
2022-09-29T16:03:41.235Z,20.61
2022-09-29T16:06:39.980Z,20.68
2022-09-29T16:09:19.058Z,20.70
2022-09-29T16:11:46.359Z,20.66
2022-09-29T16:14:28.510Z,20.62
2022-09-29T16:16:59.029Z,20.61
2022-09-29T16:19:32.668Z,20.77
2022-09-29T16:22:06.757Z,20.43
2022-09-29T16:24:36.927Z,20.36
2022-09-29T16:27:04.087Z,20.14
2022-09-29T16:29:36.070Z,19.87
2022-09-29T16:32:42.301Z,19.63
2022-09-29T16:36:01.104Z,19.47
2022-09-29T16:38:35.994Z,19.21
2022-09-29T16:41:40.870Z,19.19
2022-09-29T16:44:43.807Z,19.14
2022-09-29T16:47:17.307Z,18.92
2022-09-29T16:49:53.489Z,18.89
2022-09-29T16:52:28.761Z,18.91
2022-09-29T16:55:16.456Z,18.76
2022-09-29T16:58:19.237Z,18.64
2022-09-29T17:00:47.818Z,18.60
2022-09-29T17:03:15.175Z,18.58
2022-09-29T17:05:47.928Z,18.53
2022-09-29T17:08:31.929Z,18.44
2022-09-29T17:10:58.946Z,18.38
2022-09-29T17:13:32.542Z,18.35
2022-09-29T17:15:59.530Z,18.30
2022-09-29T17:18:27.322Z,18.23
2022-09-29T17:20:54.474Z,18.15
2022-09-29T17:23:21.451Z,18.10
2022-09-29T17:25:48.680Z,18.03
2022-09-29T17:28:25.438Z,17.97
2022-09-29T17:30:55.763Z,17.94
2022-09-29T17:33:23.051Z,17.94
2022-09-29T17:35:55.243Z,17.95
2022-09-29T17:38:24.230Z,17.95
2022-09-29T17:41:18.417Z,17.92
2022-09-29T17:43:46.906Z,17.90
2022-09-29T17:46:15.976Z,17.90
2022-09-29T17:48:43.350Z,17.80
2022-09-29T17:51:12.989Z,17.69
2022-09-29T17:53:41.869Z,17.62
2022-09-29T17:56:22.048Z,17.63
2022-09-29T17:58:49.656Z,17.64
2022-09-29T18:01:20.196Z,17.66
2022-09-29T18:03:50.822Z,17.66
2022-09-29T18:06:27.719Z,17.70
2022-09-29T18:08:56.495Z,17.71
2022-09-29T18:11:25.683Z,17.67
2022-09-29T18:13:53.737Z,17.70
2022-09-29T18:16:23.549Z,17.77
2022-09-29T18:18:56.697Z,17.84
2022-09-29T18:21:25.157Z,17.93
2022-09-29T18:23:52.202Z,17.99
2022-09-29T18:26:19.422Z,18.02
2022-09-29T18:28:48.701Z,18.07
2022-09-29T18:31:25.024Z,18.11
2022-09-29T18:33:53.199Z,18.14
2022-09-29T18:36:21.223Z,18.18
2022-09-29T18:38:48.630Z,18.21
2022-09-29T18:41:20.431Z,18.19
2022-09-29T18:43:48.665Z,18.13
2022-09-29T18:46:16.101Z,18.07
2022-09-29T18:48:43.997Z,18.04
2022-09-29T18:51:13.812Z,18.12
2022-09-29T18:53:42.119Z,18.11
2022-09-29T18:56:19.401Z,18.09
2022-09-29T18:58:46.422Z,17.99
2022-09-29T19:01:17.214Z,17.88
2022-09-29T19:03:44.175Z,17.73
2022-09-29T19:06:15.720Z,17.75
2022-09-29T19:08:49.288Z,17.80
2022-09-29T19:11:21.073Z,17.78
2022-09-29T19:13:50.827Z,17.72
2022-09-29T19:16:18.789Z,17.72
2022-09-29T19:18:45.940Z,17.77
2022-09-29T19:21:14.489Z,17.80
2022-09-29T19:23:43.263Z,17.68
2022-09-29T19:26:13.011Z,17.60
2022-09-29T19:28:41.062Z,17.62
2022-09-29T19:31:12.117Z,17.60
2022-09-29T19:33:39.631Z,17.60
2022-09-29T19:36:08.988Z,17.66
2022-09-29T19:38:37.984Z,17.86
2022-09-29T19:41:11.738Z,17.59
2022-09-29T19:43:39.418Z,17.49
2022-09-29T19:46:10.741Z,17.44
2022-09-29T19:48:38.130Z,17.41
2022-09-29T19:51:23.803Z,17.42
2022-09-29T19:54:10.814Z,17.40
2022-09-29T19:57:08.688Z,17.30
2022-09-29T19:59:38.529Z,17.22
2022-09-29T20:02:08.873Z,17.27
2022-09-29T20:04:36.503Z,17.31
2022-09-29T20:07:04.429Z,17.34
2022-09-29T20:09:32.918Z,17.38
2022-09-29T20:12:00.151Z,17.39
2022-09-29T20:14:28.268Z,17.44
2022-09-29T20:16:57.846Z,17.43
2022-09-29T20:19:25.564Z,17.43
2022-09-29T20:21:53.857Z,17.46
2022-09-29T20:24:24.328Z,17.47
2022-09-29T20:26:51.901Z,17.47
2022-09-29T20:29:19.891Z,17.51
2022-09-29T20:31:48.269Z,17.55
2022-09-29T20:34:18.815Z,17.58
2022-09-29T20:36:48.700Z,17.60
2022-09-29T20:39:21.619Z,17.63
2022-09-29T20:41:50.169Z,17.61
2022-09-29T20:44:20.173Z,17.54
2022-09-29T20:46:47.373Z,17.47
2022-09-29T20:49:14.419Z,17.43
2022-09-29T20:51:41.534Z,17.45
2022-09-29T20:54:11.989Z,17.43
2022-09-29T20:56:42.608Z,17.46
2022-09-29T20:59:18.334Z,17.50
2022-09-29T21:01:45.442Z,17.50
2022-09-29T21:04:15.623Z,17.49
2022-09-29T21:06:44.454Z,17.47
2022-09-29T21:09:14.489Z,17.44
2022-09-29T21:11:43.801Z,17.34
2022-09-29T21:14:13.313Z,17.35
2022-09-29T21:16:45.456Z,17.38
2022-09-29T21:19:13.387Z,17.35
2022-09-29T21:21:41.209Z,17.31
2022-09-29T21:24:08.970Z,17.32
2022-09-29T21:26:36.230Z,17.31
2022-09-29T21:29:04.413Z,17.32
2022-09-29T21:31:33.798Z,17.34
2022-09-29T21:34:07.120Z,17.33
2022-09-29T21:36:36.440Z,17.33
2022-09-29T21:39:08.753Z,17.33
2022-09-29T21:41:38.411Z,17.23
2022-09-29T21:44:11.576Z,17.22
2022-09-29T21:46:39.783Z,17.23
2022-09-29T21:49:08.696Z,17.18
2022-09-29T21:51:41.688Z,17.16
2022-09-29T21:54:12.477Z,17.14
2022-09-29T21:56:41.586Z,17.07
2022-09-29T21:59:10.465Z,17.05
2022-09-29T22:01:39.806Z,16.95
2022-09-29T22:04:07.604Z,16.80
2022-09-29T22:06:35.922Z,16.84
2022-09-29T22:09:04.159Z,16.71
2022-09-29T22:11:42.590Z,16.66
2022-09-29T22:14:12.444Z,16.61
2022-09-29T22:16:40.238Z,16.62
2022-09-29T22:19:24.098Z,16.61
2022-09-29T22:21:53.439Z,16.56
2022-09-29T22:24:20.782Z,16.47
2022-09-29T22:26:47.844Z,16.43
2022-09-29T22:29:15.051Z,16.38
2022-09-29T22:31:42.001Z,16.36
2022-09-29T22:34:11.400Z,16.34
2022-09-29T22:36:39.476Z,16.41
2022-09-29T22:39:07.191Z,16.37
2022-09-29T22:41:37.066Z,16.28
2022-09-29T22:44:04.497Z,16.21
2022-09-29T22:46:32.646Z,16.19
2022-09-29T22:49:00.184Z,16.19
2022-09-29T22:51:27.451Z,16.18
2022-09-29T22:53:54.491Z,16.20
2022-09-29T22:56:28.880Z,16.21
2022-09-29T22:59:01.355Z,16.17
2022-09-29T23:01:29.345Z,16.08
2022-09-29T23:03:56.414Z,16.02
2022-09-29T23:06:23.449Z,16.03
2022-09-29T23:08:50.791Z,16.03
2022-09-29T23:11:20.071Z,16.03
2022-09-29T23:13:47.527Z,16.05
2022-09-29T23:16:19.441Z,16.09
2022-09-29T23:18:46.693Z,16.13
2022-09-29T23:21:17.895Z,16.15
2022-09-29T23:23:45.577Z,16.19
2022-09-29T23:26:12.745Z,16.22
2022-09-29T23:28:39.842Z,16.23
2022-09-29T23:31:08.355Z,16.24
2022-09-29T23:33:35.791Z,16.21
2022-09-29T23:36:11.070Z,16.18
2022-09-29T23:38:58.424Z,16.11
2022-09-29T23:41:27.505Z,16.03
2022-09-29T23:43:58.136Z,16.00
2022-09-29T23:46:26.979Z,15.96
2022-09-29T23:48:53.999Z,15.92
2022-09-29T23:51:21.060Z,15.90
2022-09-29T23:53:48.052Z,15.91
2022-09-29T23:56:15.126Z,15.92
2022-09-29T23:58:42.229Z,15.92
